createdAt,value
2023-04-18T00:01:11.235Z,5.70
2023-04-18T00:04:14.084Z,5.35
2023-04-18T00:07:17.580Z,5.00
2023-04-18T00:10:19.321Z,5.60
2023-04-18T00:13:20.959Z,5.53
2023-04-18T00:16:22.850Z,5.47
2023-04-18T00:19:24.549Z,5.53
2023-04-18T00:22:26.254Z,4.83
2023-04-18T00:25:28.003Z,5.43
2023-04-18T00:28:29.735Z,5.97
2023-04-18T00:31:31.814Z,5.45
2023-04-18T00:34:33.454Z,5.55
2023-04-18T00:37:35.166Z,5.83
2023-04-18T00:40:37.878Z,5.60
2023-04-18T00:43:39.526Z,5.03
2023-04-18T00:46:41.198Z,6.38
2023-04-18T00:49:44.062Z,6.32
2023-04-18T00:52:45.901Z,4.73
2023-04-18T00:55:47.874Z,5.45
2023-04-18T00:58:49.598Z,5.80
2023-04-18T01:01:51.344Z,5.43
2023-04-18T01:04:53.045Z,5.65
2023-04-18T01:08:00.684Z,5.70
2023-04-18T01:11:02.557Z,5.82
2023-04-18T01:14:06.449Z,6.90
2023-04-18T01:17:11.047Z,5.63
2023-04-18T01:20:13.808Z,6.85
2023-04-18T01:23:16.586Z,6.03
2023-04-18T01:26:18.349Z,6.75
2023-04-18T01:29:19.997Z,6.15
2023-04-18T01:32:22.317Z,5.32
2023-04-18T01:35:24.000Z,6.28
2023-04-18T01:38:25.727Z,6.67
2023-04-18T01:41:29.725Z,6.22
2023-04-18T01:44:31.350Z,6.15
2023-04-18T01:47:33.024Z,6.25
2023-04-18T01:50:34.681Z,6.80
2023-04-18T01:53:36.260Z,6.03
2023-04-18T01:56:37.846Z,5.88
2023-04-18T01:59:39.474Z,6.80
2023-04-18T02:02:41.401Z,6.30
2023-04-18T02:05:43.200Z,6.80
2023-04-18T02:08:44.759Z,5.97
2023-04-18T02:11:46.549Z,6.07
2023-04-18T02:14:53.984Z,7.20
2023-04-18T02:17:55.721Z,6.40
2023-04-18T02:20:57.448Z,6.13
2023-04-18T02:23:59.154Z,5.83
2023-04-18T02:27:03.262Z,6.93
2023-04-18T02:30:05.764Z,6.45
2023-04-18T02:33:07.539Z,6.82
2023-04-18T02:36:12.769Z,6.40
2023-04-18T02:39:14.409Z,6.57
2023-04-18T02:42:16.002Z,6.93
2023-04-18T02:45:17.829Z,6.65
2023-04-18T02:48:19.485Z,7.40
2023-04-18T02:51:21.120Z,7.28
2023-04-18T02:54:22.794Z,8.90
2023-04-18T02:57:24.472Z,7.13
2023-04-18T03:00:27.149Z,8.40
2023-04-18T03:03:28.814Z,7.22
2023-04-18T03:06:31.665Z,8.05
2023-04-18T03:09:33.298Z,7.90
2023-04-18T03:12:34.946Z,7.25
2023-04-18T03:15:37.343Z,7.63
2023-04-18T03:18:38.994Z,6.95
2023-04-18T03:21:40.661Z,7.28
2023-04-18T03:24:42.340Z,8.10
2023-04-18T03:27:44.021Z,7.38
2023-04-18T03:30:45.667Z,7.65
2023-04-18T03:33:48.324Z,7.47
2023-04-18T03:36:50.007Z,8.98
2023-04-18T03:39:51.574Z,7.90
2023-04-18T03:42:53.231Z,7.53
2023-04-18T03:45:55.073Z,8.07
2023-04-18T03:48:56.779Z,7.03
2023-04-18T03:51:58.379Z,7.90
2023-04-18T03:55:00.102Z,7.17
2023-04-18T03:58:01.777Z,9.23
2023-04-18T04:01:03.466Z,7.70
2023-04-18T04:04:05.373Z,7.70
2023-04-18T04:07:07.203Z,8.30
2023-04-18T04:10:09.290Z,8.77
2023-04-18T04:13:10.928Z,9.38
2023-04-18T04:16:12.773Z,7.80
2023-04-18T04:19:15.015Z,7.88
2023-04-18T04:22:16.688Z,8.63
2023-04-18T04:25:19.435Z,8.37
2023-04-18T04:28:23.965Z,10.55
2023-04-18T04:31:25.681Z,8.30
2023-04-18T04:34:27.311Z,10.85
2023-04-18T04:37:29.049Z,9.27
2023-04-18T04:40:30.829Z,8.67
2023-04-18T04:43:33.050Z,9.07
2023-04-18T04:46:34.837Z,7.90
2023-04-18T04:49:36.460Z,9.57
2023-04-18T04:52:40.237Z,7.97
2023-04-18T04:55:41.956Z,8.00
2023-04-18T04:58:43.670Z,9.15
2023-04-18T05:01:46.691Z,7.97
2023-04-18T05:04:48.714Z,7.68
2023-04-18T05:07:50.480Z,9.52
2023-04-18T05:10:52.122Z,7.60
2023-04-18T05:13:53.823Z,7.70
2023-04-18T05:16:55.911Z,7.72
2023-04-18T05:19:57.659Z,8.23
2023-04-18T05:22:59.393Z,7.63
2023-04-18T05:26:01.059Z,7.27
2023-04-18T05:29:03.388Z,6.97
2023-04-18T05:32:06.620Z,7.13
2023-04-18T05:35:08.765Z,7.05
2023-04-18T05:38:10.467Z,7.85
2023-04-18T05:41:12.760Z,7.07
2023-04-18T05:44:16.128Z,8.45
2023-04-18T05:47:19.060Z,7.60
2023-04-18T05:50:20.688Z,7.00
2023-04-18T05:53:22.383Z,6.20
2023-04-18T05:56:24.078Z,6.93
2023-04-18T05:59:26.903Z,6.65
2023-04-18T06:02:28.844Z,7.05
2023-04-18T06:05:30.840Z,6.82
2023-04-18T06:08:32.857Z,6.43
2023-04-18T06:11:35.835Z,6.60
2023-04-18T06:14:37.473Z,6.82
2023-04-18T06:17:39.368Z,5.78
2023-04-18T06:20:42.266Z,6.03
2023-04-18T06:23:44.208Z,6.70
2023-04-18T06:26:45.919Z,5.53
2023-04-18T06:29:47.594Z,6.30
2023-04-18T06:32:49.644Z,5.72
2023-04-18T06:35:53.832Z,7.47
2023-04-18T06:38:55.568Z,6.10
2023-04-18T06:41:58.779Z,5.73
2023-04-18T06:45:00.412Z,5.60
2023-04-18T06:48:05.542Z,6.80
2023-04-18T06:51:07.146Z,6.10
2023-04-18T06:54:08.744Z,6.28
2023-04-18T06:57:10.828Z,5.00
2023-04-18T07:00:12.952Z,6.25
2023-04-18T07:03:14.771Z,5.68
2023-04-18T07:06:16.611Z,5.60
2023-04-18T07:09:18.242Z,6.00
2023-04-18T07:12:21.436Z,5.13
2023-04-18T07:15:23.131Z,5.10
2023-04-18T07:18:36.672Z,5.80
2023-04-18T07:21:40.648Z,4.72
2023-04-18T07:24:42.502Z,4.63
2023-04-18T07:27:44.216Z,5.53
2023-04-18T07:30:46.070Z,6.05
2023-04-18T07:33:47.942Z,4.20
2023-04-18T07:36:49.686Z,4.85
2023-04-18T07:39:51.769Z,4.95
2023-04-18T07:42:53.516Z,5.03
2023-04-18T07:45:55.600Z,5.68
2023-04-18T07:48:59.097Z,4.68
2023-04-18T07:52:00.810Z,4.75
2023-04-18T07:55:03.518Z,4.65
2023-04-18T07:58:05.243Z,3.83
2023-04-18T08:01:07.757Z,3.83
2023-04-18T08:04:09.834Z,3.85
2023-04-18T08:07:11.620Z,3.95
2023-04-18T08:10:13.202Z,5.38
2023-04-18T08:13:14.859Z,3.50
2023-04-18T08:16:17.512Z,3.17
2023-04-18T08:19:19.421Z,5.63
2023-04-18T08:22:21.035Z,5.75
2023-04-18T08:25:22.922Z,4.05
2023-04-18T08:28:24.692Z,4.33
2023-04-18T08:31:26.501Z,4.13
2023-04-18T08:34:29.372Z,4.20
2023-04-18T08:37:31.649Z,4.10
2023-04-18T08:40:33.341Z,3.65
2023-04-18T08:43:35.235Z,4.30
2023-04-18T08:46:37.385Z,5.57
2023-04-18T08:49:40.094Z,4.72
2023-04-18T08:52:48.146Z,5.32
2023-04-18T08:55:57.325Z,4.50
2023-04-18T08:59:02.755Z,4.50
2023-04-18T09:02:07.874Z,4.05
2023-04-18T09:05:21.309Z,4.47
2023-04-18T09:08:26.785Z,4.45
2023-04-18T09:11:31.651Z,5.35
2023-04-18T09:14:37.456Z,5.10
2023-04-18T09:18:01.558Z,5.63
2023-04-18T09:21:19.531Z,5.50
2023-04-18T09:24:27.201Z,5.03
2023-04-18T09:27:34.902Z,5.07
2023-04-18T09:30:39.898Z,4.20
2023-04-18T09:33:54.228Z,3.65
2023-04-18T09:37:16.381Z,4.65
2023-04-18T09:40:19.255Z,5.20
2023-04-18T09:43:21.428Z,7.18
2023-04-18T09:46:23.373Z,4.37
2023-04-18T09:49:25.047Z,4.70
2023-04-18T09:52:36.072Z,5.43
2023-04-18T09:55:40.071Z,5.32
2023-04-18T09:58:42.752Z,4.85
2023-04-18T10:01:47.488Z,4.50
2023-04-18T10:04:50.741Z,4.90
2023-04-18T10:07:53.604Z,5.65
2023-04-18T10:10:57.900Z,7.30
2023-04-18T10:14:03.347Z,5.93
2023-04-18T10:17:05.076Z,4.70
2023-04-18T10:20:10.728Z,5.15
2023-04-18T10:23:31.852Z,5.85
2023-04-18T10:26:47.037Z,5.07
2023-04-18T10:29:52.372Z,4.18
2023-04-18T10:32:55.803Z,4.23
2023-04-18T10:36:00.668Z,5.50
2023-04-18T10:39:20.545Z,4.35
2023-04-18T10:42:59.307Z,4.63
2023-04-18T10:46:23.943Z,5.47
2023-04-18T10:49:35.212Z,3.90
2023-04-18T10:52:36.886Z,5.65
2023-04-18T10:55:41.722Z,4.55
2023-04-18T10:58:49.358Z,5.47
2023-04-18T11:02:02.390Z,4.47
2023-04-18T11:05:05.473Z,4.77
2023-04-18T11:08:23.605Z,4.63
2023-04-18T11:11:25.314Z,8.52
2023-04-18T11:14:26.996Z,5.28
2023-04-18T11:17:35.735Z,5.50
2023-04-18T11:20:46.796Z,4.43
2023-04-18T11:23:48.563Z,3.88
2023-04-18T11:26:50.780Z,5.97
2023-04-18T11:29:56.232Z,3.83
2023-04-18T11:32:57.938Z,6.97
2023-04-18T11:35:59.918Z,3.63
2023-04-18T11:39:01.590Z,4.55
2023-04-18T11:42:03.650Z,4.40
2023-04-18T11:45:15.700Z,3.92
2023-04-18T11:48:17.320Z,3.55
2023-04-18T11:51:38.669Z,6.23
2023-04-18T11:54:44.889Z,3.33
2023-04-18T11:58:01.048Z,4.30
2023-04-18T12:01:29.109Z,3.53
2023-04-18T12:04:31.061Z,5.07
2023-04-18T12:07:44.710Z,4.33
2023-04-18T12:10:51.527Z,4.35
2023-04-18T12:13:56.904Z,5.60
2023-04-18T12:16:58.592Z,7.05
2023-04-18T12:20:13.464Z,3.78
2023-04-18T12:23:38.937Z,3.97
2023-04-18T12:26:46.042Z,4.55
2023-04-18T12:29:47.630Z,4.97
2023-04-18T12:32:51.814Z,5.22
2023-04-18T12:35:53.953Z,4.63
2023-04-18T12:38:55.883Z,5.50
2023-04-18T12:41:58.577Z,3.70
2023-04-18T12:45:00.919Z,3.65
2023-04-18T12:48:02.703Z,4.38
2023-04-18T12:51:04.471Z,3.67
2023-04-18T12:54:06.296Z,4.43
2023-04-18T12:57:07.911Z,4.80
2023-04-18T13:00:13.817Z,3.78
2023-04-18T13:03:15.984Z,4.20
2023-04-18T13:06:18.819Z,3.35
2023-04-18T13:09:20.490Z,3.23
2023-04-18T13:12:22.152Z,5.45
2023-04-18T13:15:23.966Z,4.43
2023-04-18T13:18:25.622Z,3.85
2023-04-18T13:21:27.718Z,3.35
2023-04-18T13:24:29.270Z,4.63
2023-04-18T13:27:30.940Z,3.50
2023-04-18T13:30:34.199Z,6.28
2023-04-18T13:33:35.941Z,4.95
2023-04-18T13:36:37.626Z,4.30
2023-04-18T13:39:39.589Z,4.50
2023-04-18T13:42:43.151Z,5.05
2023-04-18T13:45:44.795Z,3.70
2023-04-18T13:48:46.907Z,4.65
2023-04-18T13:51:50.473Z,4.10
2023-04-18T13:54:52.099Z,4.00
2023-04-18T13:57:53.727Z,3.33
2023-04-18T14:00:56.125Z,3.85
2023-04-18T14:03:58.078Z,4.63
2023-04-18T14:07:00.345Z,6.30
2023-04-18T14:10:02.084Z,4.73
2023-04-18T14:13:03.870Z,4.80
2023-04-18T14:16:06.645Z,4.97
2023-04-18T14:19:08.445Z,3.97
2023-04-18T14:22:10.158Z,6.22
2023-04-18T14:25:12.032Z,3.13
2023-04-18T14:28:13.830Z,3.45
2023-04-18T14:31:16.278Z,3.00
2023-04-18T14:34:17.936Z,3.47
2023-04-18T14:37:19.560Z,4.57
2023-04-18T14:40:22.384Z,2.80
2023-04-18T14:43:24.463Z,4.90
2023-04-18T14:46:28.245Z,5.15
2023-04-18T14:49:30.138Z,3.55
2023-04-18T14:52:31.817Z,3.53
2023-04-18T14:55:34.454Z,6.17
2023-04-18T14:58:36.404Z,3.80
2023-04-18T15:01:38.076Z,4.45
2023-04-18T15:04:39.778Z,3.80
2023-04-18T15:07:43.192Z,2.95
2023-04-18T15:10:46.477Z,3.27
2023-04-18T15:13:48.270Z,4.00
2023-04-18T15:16:50.004Z,3.45
2023-04-18T15:19:51.799Z,5.03
2023-04-18T15:22:53.411Z,4.35
2023-04-18T15:25:55.071Z,7.60
2023-04-18T15:28:56.722Z,6.78
2023-04-18T15:31:58.409Z,4.55
2023-04-18T15:35:00.036Z,4.93
2023-04-18T15:38:01.825Z,3.85
2023-04-18T15:41:03.506Z,4.73
2023-04-18T15:44:07.706Z,5.40
2023-04-18T15:47:09.674Z,4.50
2023-04-18T15:50:12.184Z,5.95
2023-04-18T15:53:13.820Z,5.18
2023-04-18T15:56:15.429Z,3.60
2023-04-18T15:59:17.118Z,5.28
2023-04-18T16:02:18.868Z,5.03
2023-04-18T16:05:20.886Z,4.53
2023-04-18T16:08:22.495Z,4.07
2023-04-18T16:11:27.539Z,5.13
2023-04-18T16:14:30.602Z,5.60
2023-04-18T16:17:32.264Z,4.03
2023-04-18T16:20:34.630Z,5.25
2023-04-18T16:23:36.351Z,4.20
2023-04-18T16:26:38.153Z,4.93
2023-04-18T16:29:39.831Z,6.60
2023-04-18T16:32:41.562Z,5.85
2023-04-18T16:35:43.253Z,4.70
2023-04-18T16:38:44.970Z,4.47
2023-04-18T16:41:46.589Z,4.70
2023-04-18T16:44:48.322Z,4.13
2023-04-18T16:47:50.005Z,6.03
2023-04-18T16:50:51.936Z,5.32
2023-04-18T16:53:53.655Z,5.05
2023-04-18T16:56:55.361Z,5.60
2023-04-18T16:59:58.253Z,4.68
2023-04-18T17:02:59.896Z,5.43
2023-04-18T17:06:01.755Z,5.05
2023-04-18T17:09:06.271Z,4.78
2023-04-18T17:12:08.033Z,6.40
2023-04-18T17:15:10.016Z,5.05
2023-04-18T17:18:11.783Z,6.30
2023-04-18T17:21:13.630Z,6.32
2023-04-18T17:24:15.237Z,5.90
2023-04-18T17:27:16.810Z,6.27
2023-04-18T17:30:18.640Z,5.63
2023-04-18T17:33:21.034Z,5.07
2023-04-18T17:36:22.701Z,4.18
2023-04-18T17:39:24.744Z,6.57
2023-04-18T17:42:26.360Z,4.80
2023-04-18T17:45:27.996Z,5.90
2023-04-18T17:48:29.632Z,6.10
2023-04-18T17:51:31.283Z,5.55
2023-04-18T17:54:32.976Z,6.85
2023-04-18T17:57:35.428Z,8.67
2023-04-18T18:00:37.020Z,6.03
2023-04-18T18:03:39.022Z,4.85
2023-04-18T18:06:42.259Z,5.93
2023-04-18T18:09:45.519Z,5.85
2023-04-18T18:12:47.165Z,6.10
2023-04-18T18:15:48.872Z,7.45
2023-04-18T18:18:51.094Z,11.65
2023-04-18T18:21:52.875Z,9.63
2023-04-18T18:24:54.546Z,5.85
2023-04-18T18:27:56.269Z,8.73
2023-04-18T18:30:58.008Z,6.88
2023-04-18T18:33:59.604Z,7.50
2023-04-18T18:37:01.387Z,6.43
2023-04-18T18:40:07.424Z,6.95
2023-04-18T18:43:09.080Z,8.80
2023-04-18T18:46:13.315Z,9.15
2023-04-18T18:49:15.179Z,7.63
2023-04-18T18:52:16.949Z,7.97
2023-04-18T18:55:18.728Z,9.52
2023-04-18T18:58:20.735Z,6.63
2023-04-18T19:01:23.112Z,7.05
2023-04-18T19:04:25.094Z,6.93
2023-04-18T19:07:27.851Z,7.72
2023-04-18T19:10:31.204Z,6.15
2023-04-18T19:13:33.188Z,11.37
2023-04-18T19:16:36.614Z,9.35
2023-04-18T19:19:38.490Z,8.43
2023-04-18T19:22:42.895Z,8.30
2023-04-18T19:25:44.985Z,10.32
2023-04-18T19:28:46.999Z,7.30
2023-04-18T19:31:48.728Z,5.25
2023-04-18T19:34:51.459Z,6.47
2023-04-18T19:37:55.928Z,5.78
2023-04-18T19:40:57.591Z,6.85
2023-04-18T19:43:59.283Z,5.97
2023-04-18T19:47:00.922Z,7.05
2023-04-18T19:50:03.850Z,7.20
2023-04-18T19:53:05.464Z,6.03
2023-04-18T19:56:10.775Z,9.52
2023-04-18T19:59:12.898Z,8.93
2023-04-18T20:02:14.721Z,7.13
2023-04-18T20:05:18.510Z,8.57
2023-04-18T20:08:20.450Z,8.73
2023-04-18T20:11:25.024Z,7.45
2023-04-18T20:14:28.588Z,6.47
2023-04-18T20:17:30.645Z,6.05
2023-04-18T20:20:32.640Z,8.18
2023-04-18T20:23:37.864Z,7.13
2023-04-18T20:26:39.458Z,5.78
2023-04-18T20:29:41.303Z,6.90
2023-04-18T20:32:42.959Z,6.60
2023-04-18T20:35:44.914Z,5.82
2023-04-18T20:38:46.773Z,6.72
2023-04-18T20:41:51.609Z,7.78
2023-04-18T20:44:54.665Z,7.80
2023-04-18T20:47:56.917Z,8.35
2023-04-18T20:50:58.621Z,7.07
2023-04-18T20:54:00.564Z,7.22
2023-04-18T20:57:02.709Z,6.03
2023-04-18T21:00:07.154Z,5.40
2023-04-18T21:03:08.914Z,5.03
2023-04-18T21:06:10.724Z,7.25
2023-04-18T21:09:12.468Z,5.43
2023-04-18T21:12:14.300Z,6.40
2023-04-18T21:15:16.167Z,5.87
2023-04-18T21:18:21.057Z,5.97
2023-04-18T21:21:22.911Z,5.93
2023-04-18T21:24:24.664Z,5.55
2023-04-18T21:27:26.588Z,5.65
2023-04-18T21:30:28.830Z,6.13
2023-04-18T21:33:30.552Z,6.40
2023-04-18T21:36:32.622Z,7.00
2023-04-18T21:39:34.278Z,7.63
2023-04-18T21:42:36.735Z,6.38
2023-04-18T21:45:38.416Z,5.13
2023-04-18T21:48:44.647Z,5.43
2023-04-18T21:51:46.279Z,7.38
2023-04-18T21:54:47.897Z,6.13
2023-04-18T21:57:49.473Z,6.53
2023-04-18T22:00:51.165Z,5.70
2023-04-18T22:03:53.033Z,5.95
2023-04-18T22:06:54.999Z,6.05
2023-04-18T22:09:58.556Z,6.60
2023-04-18T22:13:00.238Z,6.22
2023-04-18T22:16:03.867Z,6.97
2023-04-18T22:19:05.706Z,5.35
2023-04-18T22:22:07.603Z,5.93
2023-04-18T22:25:11.735Z,8.48
2023-04-18T22:28:13.338Z,5.80
2023-04-18T22:31:15.091Z,5.10
2023-04-18T22:34:16.894Z,6.10
2023-04-18T22:37:18.682Z,5.95
2023-04-18T22:40:20.403Z,6.25
2023-04-18T22:43:22.852Z,6.60
2023-04-18T22:46:24.720Z,5.53
2023-04-18T22:49:27.587Z,8.23
2023-04-18T22:52:29.613Z,6.57
2023-04-18T22:55:31.345Z,5.65
2023-04-18T22:58:32.927Z,6.90
2023-04-18T23:01:34.632Z,7.77
2023-04-18T23:04:36.885Z,6.40
2023-04-18T23:07:38.651Z,6.30
2023-04-18T23:10:40.383Z,6.90
2023-04-18T23:13:42.095Z,6.00
2023-04-18T23:16:43.917Z,7.07
2023-04-18T23:19:45.620Z,6.07
2023-04-18T23:22:50.101Z,6.75
2023-04-18T23:25:52.249Z,5.57
2023-04-18T23:28:54.170Z,6.18
2023-04-18T23:31:56.197Z,6.83
2023-04-18T23:34:57.917Z,7.00
2023-04-18T23:37:59.543Z,7.93
2023-04-18T23:41:01.144Z,6.25
2023-04-18T23:44:02.825Z,6.65
2023-04-18T23:47:04.502Z,6.13
2023-04-18T23:50:06.749Z,7.53
2023-04-18T23:53:08.321Z,6.15
2023-04-18T23:56:09.946Z,8.55
2023-04-18T23:59:11.704Z,7.45
